Terminal Aerodrome Forecast
Issued by NWS Shreveport, LA

Home | Current Version | Previous Version | Text Only | Print | Product List | Glossary On
Versions: 1 2 3 4 5 6 7 8 9 10 11 12 13
472
FTUS44 KSHV 201738
TAFTYR
TAF
KTYR 201738Z 2018/2118 18013G19KT P6SM SCT025 BKN030
     FM210100 15008KT P6SM SKC
     FM210800 18008KT P6SM BKN012
     FM211500 19010KT P6SM SCT030=

USA.gov is the U.S. government's official web portal to all federal, state and local government web resources and services.